createdAt,value
2022-08-17T00:00:33.231Z,14.30
2022-08-17T00:03:11.310Z,15.73
2022-08-17T00:05:44.744Z,12.88
2022-08-17T00:08:13.210Z,16.30
2022-08-17T00:10:41.007Z,14.75
2022-08-17T00:13:12.858Z,13.40
2022-08-17T00:18:53.795Z,15.77
2022-08-17T00:20:55.702Z,14.60
2022-08-17T00:23:22.669Z,14.70
2022-08-17T00:25:49.603Z,12.70
2022-08-17T00:28:17.274Z,15.25
2022-08-17T00:30:50.899Z,13.45
2022-08-17T00:33:25.087Z,16.60
2022-08-17T00:35:52.847Z,14.55
2022-08-17T00:38:20.168Z,15.10
2022-08-17T00:40:59.019Z,15.90
2022-08-17T00:43:31.368Z,15.15
2022-08-17T00:48:30.223Z,19.30
2022-08-17T00:51:11.673Z,15.35
2022-08-17T00:53:44.230Z,19.30
2022-08-17T00:56:21.131Z,13.40
2022-08-17T00:58:52.000Z,15.10
2022-08-17T01:01:21.185Z,17.30
2022-08-17T01:03:51.536Z,15.80
2022-08-17T01:06:18.658Z,14.50
2022-08-17T01:08:45.811Z,13.07
2022-08-17T01:11:12.552Z,19.65
2022-08-17T01:13:42.588Z,14.88
2022-08-17T01:16:18.301Z,17.38
2022-08-17T01:18:48.157Z,14.32
2022-08-17T01:21:29.168Z,15.13
2022-08-17T01:23:56.497Z,14.27
2022-08-17T01:26:23.799Z,15.05
2022-08-17T01:28:53.549Z,15.88
2022-08-17T01:31:23.732Z,16.33
2022-08-17T01:33:50.424Z,21.05
2022-08-17T01:36:17.134Z,20.45
2022-08-17T01:38:43.821Z,15.25
2022-08-17T01:41:14.566Z,15.63
2022-08-17T01:43:47.106Z,13.70
2022-08-17T01:46:21.940Z,16.92
2022-08-17T01:48:48.953Z,16.60
2022-08-17T01:51:16.148Z,15.23
2022-08-17T01:53:48.735Z,13.73
2022-08-17T01:56:20.174Z,13.90
2022-08-17T01:58:47.762Z,17.42
2022-08-17T02:01:16.554Z,17.92
2022-08-17T02:03:56.156Z,21.45
2022-08-17T02:06:28.477Z,13.30
2022-08-17T02:09:01.745Z,12.13
2022-08-17T02:11:37.938Z,15.70
2022-08-17T02:14:08.269Z,17.08
2022-08-17T02:16:40.403Z,15.15
2022-08-17T02:19:10.285Z,19.95
2022-08-17T02:21:38.874Z,15.82
2022-08-17T02:24:08.417Z,13.63
2022-08-17T02:26:35.202Z,13.50
2022-08-17T02:29:02.088Z,14.88
2022-08-17T02:31:31.145Z,13.30
2022-08-17T02:34:04.574Z,15.73
2022-08-17T02:36:34.293Z,13.32
2022-08-17T02:39:03.622Z,15.65
2022-08-17T02:41:30.541Z,15.40
2022-08-17T02:43:57.289Z,17.67
2022-08-17T02:46:24.120Z,16.23
2022-08-17T02:48:50.844Z,16.27
2022-08-17T02:51:17.745Z,16.90
2022-08-17T02:53:44.533Z,15.38
2022-08-17T02:56:11.219Z,17.35
2022-08-17T02:58:38.065Z,13.93
2022-08-17T03:01:07.374Z,15.88
2022-08-17T03:03:34.930Z,13.65
2022-08-17T03:06:02.012Z,15.00
2022-08-17T03:08:29.749Z,13.98
2022-08-17T03:10:56.934Z,21.50
2022-08-17T03:13:23.662Z,15.32
2022-08-17T03:15:50.742Z,18.92
2022-08-17T03:18:25.302Z,16.05
2022-08-17T03:20:59.686Z,17.95
2022-08-17T03:23:27.910Z,14.73
2022-08-17T03:25:57.142Z,15.13
2022-08-17T03:28:24.488Z,14.15
2022-08-17T03:30:52.553Z,20.05
2022-08-17T03:33:20.213Z,15.50
2022-08-17T03:35:47.407Z,18.95
2022-08-17T03:38:17.143Z,20.40
2022-08-17T03:40:56.390Z,16.23
2022-08-17T03:43:27.682Z,16.98
2022-08-17T03:46:28.177Z,21.20
2022-08-17T03:49:19.252Z,16.77
2022-08-17T03:52:04.400Z,16.08
2022-08-17T03:54:49.846Z,16.25
2022-08-17T03:57:16.742Z,17.50
2022-08-17T03:59:45.001Z,18.70
2022-08-17T04:02:18.927Z,16.98
2022-08-17T04:04:45.751Z,15.55
2022-08-17T04:07:12.748Z,15.13
2022-08-17T04:09:42.108Z,14.60
2022-08-17T04:12:11.191Z,18.00
2022-08-17T04:15:02.974Z,16.27
2022-08-17T04:17:29.850Z,15.95
2022-08-17T04:19:57.019Z,16.77
2022-08-17T04:22:30.627Z,14.10
2022-08-17T04:25:03.773Z,19.10
2022-08-17T04:27:30.452Z,16.98
2022-08-17T04:29:58.631Z,15.27
2022-08-17T04:33:03.813Z,17.90
2022-08-17T04:35:12.094Z,23.35
2022-08-17T04:37:38.844Z,19.60
2022-08-17T04:40:27.129Z,22.85
2022-08-17T04:43:06.034Z,29.67
2022-08-17T04:45:33.135Z,16.67
2022-08-17T04:48:01.167Z,14.80
2022-08-17T04:50:27.969Z,16.15
2022-08-17T04:52:54.932Z,16.77
2022-08-17T04:55:22.183Z,18.00
2022-08-17T04:57:49.141Z,18.83
2022-08-17T05:00:15.978Z,15.73
2022-08-17T05:02:50.645Z,18.33
2022-08-17T05:05:25.348Z,19.20
2022-08-17T05:07:54.558Z,16.80
2022-08-17T05:10:22.851Z,19.00
2022-08-17T05:12:58.794Z,17.70
2022-08-17T05:15:26.049Z,19.50
2022-08-17T05:17:53.251Z,15.88
2022-08-17T05:20:21.081Z,17.80
2022-08-17T05:22:51.374Z,17.10
2022-08-17T05:25:25.637Z,19.08
2022-08-17T05:27:53.286Z,21.83
2022-08-17T05:30:20.621Z,19.50
2022-08-17T05:33:01.869Z,14.95
2022-08-17T05:35:31.916Z,16.77
2022-08-17T05:38:00.894Z,23.70
2022-08-17T05:40:28.506Z,14.90
2022-08-17T05:43:10.188Z,16.50
2022-08-17T05:45:55.191Z,16.73
2022-08-17T05:48:35.605Z,15.90
2022-08-17T05:51:15.796Z,18.40
2022-08-17T05:53:42.495Z,18.58
2022-08-17T05:56:29.665Z,18.00
2022-08-17T05:59:31.294Z,15.23
2022-08-17T06:02:19.589Z,16.48
2022-08-17T06:05:02.383Z,18.23
2022-08-17T06:07:57.852Z,13.90
2022-08-17T06:10:30.650Z,18.35
2022-08-17T06:13:18.881Z,12.98
2022-08-17T06:16:32.880Z,23.52
2022-08-17T06:19:02.677Z,19.83
2022-08-17T06:21:35.136Z,22.33
2022-08-17T06:24:23.985Z,19.40
2022-08-17T06:26:52.527Z,22.95
2022-08-17T06:29:45.887Z,11.18
2022-08-17T06:32:13.609Z,14.98
2022-08-17T06:34:43.750Z,10.88
2022-08-17T06:37:49.183Z,7.22
2022-08-17T06:40:16.038Z,8.30
2022-08-17T06:43:06.497Z,14.35
2022-08-17T06:45:49.402Z,10.68
2022-08-17T06:48:32.351Z,9.32
2022-08-17T06:51:06.807Z,8.15
2022-08-17T06:53:43.012Z,10.45
2022-08-17T06:56:22.023Z,13.80
2022-08-17T06:58:50.000Z,14.77
2022-08-17T07:01:27.038Z,12.93
2022-08-17T07:04:06.348Z,11.77
2022-08-17T07:06:47.264Z,16.05
2022-08-17T07:09:28.944Z,9.98
2022-08-17T07:12:05.535Z,20.50
2022-08-17T07:14:38.421Z,16.35
2022-08-17T07:17:14.853Z,16.15
2022-08-17T07:19:47.973Z,13.30
2022-08-17T07:22:14.624Z,9.73
2022-08-17T07:24:54.831Z,15.02
2022-08-17T07:27:24.955Z,7.90
2022-08-17T07:30:00.851Z,14.07
2022-08-17T07:32:32.081Z,14.88
2022-08-17T07:37:28.418Z,6.60
2022-08-17T07:40:15.550Z,9.73
2022-08-17T07:42:45.080Z,5.72
2022-08-17T07:45:35.217Z,9.65
2022-08-17T07:48:28.181Z,9.02
2022-08-17T07:50:55.205Z,7.93
2022-08-17T07:53:25.646Z,9.50
2022-08-17T07:55:53.975Z,10.17
2022-08-17T07:58:23.533Z,7.40
2022-08-17T08:01:09.113Z,5.95
2022-08-17T08:03:42.649Z,7.32
2022-08-17T08:06:23.329Z,4.63
2022-08-17T08:08:56.092Z,7.32
2022-08-17T08:11:34.901Z,9.10
2022-08-17T08:14:33.706Z,16.35
2022-08-17T08:17:05.035Z,9.02
2022-08-17T08:19:33.025Z,7.18
2022-08-17T08:22:10.298Z,6.78
2022-08-17T08:24:45.272Z,7.10
2022-08-17T08:27:27.623Z,8.30
2022-08-17T08:30:06.833Z,14.27
2022-08-17T08:32:42.949Z,10.93
2022-08-17T08:35:33.782Z,6.78
2022-08-17T08:38:14.908Z,7.60
2022-08-17T08:40:56.439Z,14.82
2022-08-17T08:43:38.415Z,6.30
2022-08-17T08:46:28.088Z,5.25
2022-08-17T08:50:01.398Z,5.10
2022-08-17T08:52:27.576Z,11.20
2022-08-17T08:55:19.549Z,9.60
2022-08-17T08:57:54.317Z,14.23
2022-08-17T09:00:24.920Z,6.72
2022-08-17T09:03:12.603Z,5.47
2022-08-17T09:05:57.989Z,10.50
2022-08-17T09:08:31.866Z,12.52
2022-08-17T09:11:16.995Z,4.88
2022-08-17T09:14:02.624Z,7.15
2022-08-17T09:16:36.953Z,8.75
2022-08-17T09:19:30.443Z,11.13
2022-08-17T09:22:17.618Z,4.85
2022-08-17T09:24:58.494Z,6.43
2022-08-17T09:27:47.809Z,9.55
2022-08-17T09:30:15.054Z,10.43
2022-08-17T09:32:47.131Z,21.95
2022-08-17T09:35:25.250Z,5.75
2022-08-17T09:38:33.333Z,4.88
2022-08-17T09:41:24.974Z,7.80
2022-08-17T09:44:02.647Z,8.68
2022-08-17T09:47:00.333Z,7.35
2022-08-17T09:50:13.808Z,4.50
2022-08-17T09:52:46.314Z,5.68
2022-08-17T09:57:34.714Z,5.78
2022-08-17T09:59:10.776Z,4.78
2022-08-17T10:02:20.896Z,16.48
2022-08-17T10:05:00.439Z,4.97
2022-08-17T10:08:11.862Z,5.10
2022-08-17T10:10:56.366Z,11.88
2022-08-17T10:14:36.619Z,5.85
2022-08-17T10:17:36.902Z,4.03
2022-08-17T10:20:15.375Z,7.68
2022-08-17T10:23:28.153Z,4.13
2022-08-17T10:26:14.789Z,4.90
2022-08-17T10:28:58.758Z,8.80
2022-08-17T10:31:35.910Z,12.93
2022-08-17T10:35:00.117Z,5.78
2022-08-17T10:38:03.731Z,3.90
2022-08-17T10:40:35.935Z,5.28
2022-08-17T10:43:26.982Z,8.38
2022-08-17T10:49:18.643Z,5.45
2022-08-17T10:51:48.677Z,5.30
2022-08-17T10:54:24.223Z,21.17
2022-08-17T10:56:53.229Z,6.70
2022-08-17T10:59:35.281Z,8.80
2022-08-17T11:02:05.081Z,3.85
2022-08-17T11:05:09.027Z,9.32
2022-08-17T11:07:47.987Z,6.78
2022-08-17T11:10:20.746Z,7.30
2022-08-17T11:12:57.260Z,8.55
2022-08-17T11:15:53.120Z,5.68
2022-08-17T11:18:38.033Z,6.50
2022-08-17T11:21:23.472Z,17.15
2022-08-17T11:24:06.084Z,4.07
2022-08-17T11:26:35.930Z,4.15
2022-08-17T11:29:09.027Z,7.65
2022-08-17T11:31:40.650Z,5.78
2022-08-17T11:34:26.524Z,5.63
2022-08-17T11:36:53.285Z,5.25
2022-08-17T11:39:39.017Z,7.47
2022-08-17T11:42:11.923Z,2.30
2022-08-17T11:44:53.413Z,12.13
2022-08-17T11:48:16.000Z,3.50
2022-08-17T11:51:07.025Z,4.18
2022-08-17T11:54:08.709Z,4.93
2022-08-17T11:56:44.747Z,2.95
2022-08-17T12:02:05.284Z,7.63
2022-08-17T12:04:34.739Z,7.30
2022-08-17T12:07:17.926Z,3.95
2022-08-17T12:09:48.855Z,6.82
2022-08-17T12:15:11.424Z,5.65
2022-08-17T12:17:42.037Z,4.85
2022-08-17T12:20:22.290Z,4.90
2022-08-17T12:22:57.683Z,4.28
2022-08-17T12:25:37.953Z,7.65
2022-08-17T12:28:20.195Z,7.73
2022-08-17T12:30:52.049Z,2.83
2022-08-17T12:33:25.553Z,3.95
2022-08-17T12:36:05.239Z,6.18
2022-08-17T12:38:35.197Z,2.83
2022-08-17T12:41:24.922Z,7.50
2022-08-17T12:44:12.427Z,2.80
2022-08-17T12:46:51.218Z,5.68
2022-08-17T12:49:29.693Z,4.40
2022-08-17T12:52:04.976Z,4.60
2022-08-17T12:55:12.113Z,8.13
2022-08-17T12:57:38.873Z,7.32
2022-08-17T13:00:26.093Z,6.35
2022-08-17T13:02:58.981Z,3.72
2022-08-17T13:05:35.760Z,12.88
2022-08-17T13:08:12.736Z,9.55
2022-08-17T13:10:40.155Z,4.88
2022-08-17T13:13:26.142Z,4.90
2022-08-17T13:16:05.719Z,6.53
2022-08-17T13:18:48.117Z,6.55
2022-08-17T13:21:23.719Z,3.95
2022-08-17T13:24:10.510Z,6.78
2022-08-17T13:26:46.176Z,3.95
2022-08-17T13:29:31.140Z,6.38
2022-08-17T13:32:13.514Z,6.03
2022-08-17T13:35:11.984Z,5.70
2022-08-17T13:37:48.319Z,3.58
2022-08-17T13:40:15.094Z,9.98
2022-08-17T13:42:55.611Z,4.85
2022-08-17T13:45:38.715Z,3.70
2022-08-17T13:48:13.770Z,5.45
2022-08-17T13:51:00.790Z,8.98
2022-08-17T13:53:31.484Z,4.03
2022-08-17T13:56:37.485Z,4.95
2022-08-17T13:59:02.797Z,5.28
2022-08-17T14:01:34.386Z,7.72
2022-08-17T14:04:05.135Z,5.03
2022-08-17T14:06:55.059Z,3.40
2022-08-17T14:09:26.099Z,5.00
2022-08-17T14:14:23.378Z,4.40
2022-08-17T14:16:51.508Z,3.28
2022-08-17T14:19:18.553Z,4.93
2022-08-17T14:21:46.758Z,4.40
2022-08-17T14:24:35.617Z,4.75
2022-08-17T14:27:05.423Z,5.35
2022-08-17T14:29:36.894Z,8.57
2022-08-17T14:32:31.276Z,10.68
2022-08-17T14:34:59.301Z,4.93
2022-08-17T14:37:28.044Z,4.40
2022-08-17T14:39:59.809Z,5.82
2022-08-17T14:42:29.649Z,4.15
2022-08-17T14:44:58.716Z,5.18
2022-08-17T14:47:26.706Z,8.80
2022-08-17T14:49:53.679Z,9.32
2022-08-17T14:52:21.883Z,3.75
2022-08-17T14:54:52.695Z,5.35
2022-08-17T14:57:33.004Z,3.42
2022-08-17T15:00:02.245Z,3.75
2022-08-17T15:02:30.868Z,9.18
2022-08-17T15:05:04.076Z,8.95
2022-08-17T15:07:31.625Z,9.80
2022-08-17T15:10:01.548Z,4.63
2022-08-17T15:12:33.125Z,6.30
2022-08-17T15:15:01.865Z,4.00
2022-08-17T15:17:44.702Z,11.20
2022-08-17T15:20:28.123Z,3.72
2022-08-17T15:22:56.176Z,3.67
2022-08-17T15:25:25.089Z,6.28
2022-08-17T15:27:52.119Z,6.28
2022-08-17T15:30:19.379Z,7.43
2022-08-17T15:32:54.768Z,4.82
2022-08-17T15:35:27.264Z,6.57
2022-08-17T15:37:57.447Z,6.25
2022-08-17T15:40:25.275Z,4.85
2022-08-17T15:42:52.429Z,3.95
2022-08-17T15:45:22.960Z,3.25
2022-08-17T15:47:49.764Z,5.00
2022-08-17T15:50:16.632Z,9.77
2022-08-17T15:52:45.018Z,12.60
2022-08-17T15:55:15.204Z,11.93
2022-08-17T15:57:42.320Z,6.57
2022-08-17T16:00:10.332Z,17.73
2022-08-17T16:03:45.811Z,8.77
2022-08-17T16:05:27.363Z,4.18
2022-08-17T16:07:55.969Z,9.45
2022-08-17T16:10:25.177Z,5.32
2022-08-17T16:13:03.986Z,12.02
2022-08-17T16:15:33.488Z,12.88
2022-08-17T16:18:00.351Z,9.68
2022-08-17T16:20:27.456Z,5.35
2022-08-17T16:22:55.169Z,4.65
2022-08-17T16:25:52.461Z,3.67
2022-08-17T16:28:16.878Z,3.83
2022-08-17T16:30:44.131Z,6.57
2022-08-17T16:33:11.724Z,4.03
2022-08-17T16:35:39.093Z,7.97
2022-08-17T16:38:07.276Z,4.53
2022-08-17T16:40:35.720Z,7.55
2022-08-17T16:43:03.847Z,5.10
2022-08-17T16:45:36.816Z,11.18
2022-08-17T16:48:04.529Z,7.07
2022-08-17T16:50:32.299Z,4.00
2022-08-17T16:53:11.480Z,5.88
2022-08-17T16:55:39.005Z,6.10
2022-08-17T16:58:06.405Z,7.88
2022-08-17T17:00:34.083Z,4.05
2022-08-17T17:03:18.136Z,16.40
2022-08-17T17:05:57.719Z,3.53
2022-08-17T17:08:30.391Z,8.68
2022-08-17T17:10:59.492Z,3.55
2022-08-17T17:13:36.070Z,5.18
2022-08-17T17:16:26.401Z,11.65
2022-08-17T17:19:45.609Z,6.90
2022-08-17T17:22:16.946Z,6.13
2022-08-17T17:25:15.645Z,8.02
2022-08-17T17:28:19.415Z,4.93
2022-08-17T17:31:03.405Z,4.32
2022-08-17T17:33:40.403Z,6.65
2022-08-17T17:36:21.029Z,10.52
2022-08-17T17:38:53.200Z,8.48
2022-08-17T17:41:47.213Z,7.82
2022-08-17T17:44:19.756Z,6.43
2022-08-17T17:46:53.355Z,11.43
2022-08-17T17:49:20.565Z,6.78
2022-08-17T17:52:10.229Z,7.38
2022-08-17T17:54:47.249Z,9.30
2022-08-17T17:57:38.481Z,6.18
2022-08-17T18:00:21.857Z,4.60
2022-08-17T18:03:06.926Z,7.88
2022-08-17T18:05:53.914Z,9.57
2022-08-17T18:08:34.140Z,5.45
2022-08-17T18:11:41.439Z,6.43
2022-08-17T18:14:40.231Z,12.23
2022-08-17T18:17:07.158Z,6.70
2022-08-17T18:19:33.966Z,5.13
2022-08-17T18:22:15.177Z,8.55
2022-08-17T18:24:44.726Z,10.30
2022-08-17T18:27:25.923Z,8.10
2022-08-17T18:29:56.398Z,11.35
2022-08-17T18:32:31.574Z,8.60
2022-08-17T18:35:02.074Z,8.70
2022-08-17T18:37:37.084Z,10.30
2022-08-17T18:40:21.429Z,7.10
2022-08-17T18:43:10.080Z,9.98
2022-08-17T18:45:43.004Z,5.40
2022-08-17T18:48:36.650Z,8.35
2022-08-17T18:51:40.629Z,11.45
2022-08-17T18:54:24.838Z,8.77
2022-08-17T18:56:55.529Z,8.55
2022-08-17T18:59:38.265Z,7.00
2022-08-17T19:02:34.530Z,7.93
2022-08-17T19:05:25.561Z,9.20
2022-08-17T19:07:52.693Z,11.45
2022-08-17T19:10:22.413Z,9.23
2022-08-17T19:12:52.563Z,11.73
2022-08-17T19:15:44.096Z,7.03
2022-08-17T19:18:19.241Z,10.82
2022-08-17T19:20:53.347Z,8.13
2022-08-17T19:23:54.249Z,8.23
2022-08-17T19:26:51.359Z,13.32
2022-08-17T19:29:44.123Z,7.15
2022-08-17T19:32:22.353Z,9.07
2022-08-17T19:34:49.366Z,11.88
2022-08-17T19:37:40.360Z,10.88
2022-08-17T19:40:09.859Z,10.47
2022-08-17T19:42:47.446Z,9.15
2022-08-17T19:45:51.858Z,8.93
2022-08-17T19:48:50.274Z,7.28
2022-08-17T19:51:26.515Z,7.68
2022-08-17T19:54:21.289Z,7.07
2022-08-17T19:56:55.562Z,7.80
2022-08-17T19:59:51.470Z,14.23
2022-08-17T20:02:27.538Z,9.52
2022-08-17T20:05:00.589Z,17.33
2022-08-17T20:07:38.667Z,9.30
2022-08-17T20:10:13.529Z,11.45
2022-08-17T20:12:44.623Z,8.50
2022-08-17T20:15:25.493Z,11.55
2022-08-17T20:17:53.115Z,9.95
2022-08-17T20:20:24.024Z,11.82
2022-08-17T20:23:06.814Z,13.43
2022-08-17T20:25:47.497Z,13.23
2022-08-17T20:28:24.068Z,9.75
2022-08-17T20:30:52.099Z,10.70
2022-08-17T20:33:33.708Z,13.00
2022-08-17T20:36:22.779Z,9.00
2022-08-17T20:38:52.045Z,9.88
2022-08-17T20:41:24.074Z,8.52
2022-08-17T20:44:03.885Z,14.85
2022-08-17T20:46:36.538Z,12.85
2022-08-17T20:49:27.184Z,13.65
2022-08-17T20:52:02.844Z,10.90
2022-08-17T20:54:48.623Z,11.65
2022-08-17T20:57:36.729Z,9.98
2022-08-17T21:00:16.515Z,11.43
2022-08-17T21:02:49.875Z,14.10
2022-08-17T21:05:32.457Z,19.88
2022-08-17T21:08:16.623Z,18.83
2022-08-17T21:10:47.101Z,13.45
2022-08-17T21:13:15.755Z,15.75
2022-08-17T21:16:07.225Z,11.25
2022-08-17T21:18:38.965Z,8.85
2022-08-17T21:21:20.507Z,12.23
2022-08-17T21:23:53.214Z,10.77
2022-08-17T21:26:50.727Z,8.50
2022-08-17T21:29:30.994Z,11.07
2022-08-17T21:31:59.703Z,9.75
2022-08-17T21:34:36.423Z,15.18
2022-08-17T21:37:22.383Z,12.30
2022-08-17T21:40:02.323Z,11.15
2022-08-17T21:42:32.178Z,10.13
2022-08-17T21:45:10.201Z,7.75
2022-08-17T21:47:43.714Z,12.85
2022-08-17T21:50:24.427Z,16.73
2022-08-17T21:52:54.774Z,8.65
2022-08-17T21:55:28.361Z,12.43
2022-08-17T21:58:14.769Z,21.27
2022-08-17T22:00:44.730Z,11.10
2022-08-17T22:03:25.983Z,9.77
2022-08-17T22:05:52.793Z,11.55
2022-08-17T22:08:23.202Z,10.85
2022-08-17T22:10:59.785Z,10.60
2022-08-17T22:13:29.413Z,11.20
2022-08-17T22:16:29.524Z,8.95
2022-08-17T22:18:58.999Z,14.48
2022-08-17T22:21:26.204Z,12.07
2022-08-17T22:24:05.219Z,18.48
2022-08-17T22:27:02.406Z,13.32
2022-08-17T22:29:57.616Z,13.65
2022-08-17T22:32:43.935Z,10.40
2022-08-17T22:35:55.689Z,14.45
2022-08-17T22:38:26.758Z,17.13
2022-08-17T22:40:56.542Z,15.93
2022-08-17T22:43:28.622Z,13.10
2022-08-17T22:45:59.904Z,16.95
2022-08-17T22:48:29.704Z,14.18
2022-08-17T22:51:13.962Z,7.85
2022-08-17T22:54:14.825Z,13.45
2022-08-17T22:57:20.820Z,20.08
2022-08-17T22:59:52.093Z,10.50
2022-08-17T23:02:25.978Z,11.60
2022-08-17T23:04:59.318Z,9.98
2022-08-17T23:07:26.086Z,14.70
2022-08-17T23:09:53.276Z,12.65
2022-08-17T23:12:26.528Z,12.00
2022-08-17T23:15:00.649Z,10.43
2022-08-17T23:17:36.939Z,10.50
2022-08-17T23:20:08.552Z,10.35
2022-08-17T23:22:37.995Z,9.38
2022-08-17T23:25:26.852Z,18.13
2022-08-17T23:27:54.777Z,8.68
2022-08-17T23:30:24.966Z,13.60
2022-08-17T23:32:54.079Z,10.77
2022-08-17T23:35:40.523Z,12.50
2022-08-17T23:38:11.725Z,8.75
2022-08-17T23:40:39.746Z,10.60
2022-08-17T23:43:23.665Z,11.57
2022-08-17T23:45:54.215Z,8.40
2022-08-17T23:48:32.465Z,12.73
2022-08-17T23:51:14.671Z,14.23
2022-08-17T23:53:47.354Z,8.45
2022-08-17T23:56:15.330Z,14.68
2022-08-17T23:58:43.572Z,10.35
